METAR Data
IDs: Format: Raw Decoded Include TAF

Data at: 0457 UTC 26 Sep 2018

KARB 260453Z AUTO 20010G19KT 10SM -RA BKN120 21/19 A2983 RMK AO2 RAB09 SLP098 P0002 T02060189 402440189
KARB 260353Z AUTO 18010KT 10SM FEW014 FEW019 SCT095 22/21 A2983 RMK AO2 SLP094 T02170206
KARB 260341Z AUTO 19011KT 10SM FEW011 SCT018 22/21 A2983 RMK AO2 T02170206
KARB 260313Z AUTO 20011G17KT 10SM BKN011 22/21 A2984 RMK AO2 T02170206
KARB 260253Z AUTO 20010KT 10SM FEW009 21/21 A2985 RMK AO2 SLP103 60004 T02110206 56002
KARB 260242Z AUTO 21009KT 10SM SCT009 21/21 A2985 RMK AO2 T02110206
KARB 260201Z AUTO 20008KT 10SM BKN009 OVC095 21/21 A2986 RMK AO2 CIG 007V012 T02110206
KARB 260153Z AUTO 19007KT 10SM BKN010 OVC095 21/21 A2985 RMK AO2 SLP104 T02110206
KARB 260128Z AUTO 19008KT 10SM BKN011 OVC080 21/20 A2985 RMK AO2 LTG DSNT E T02110200
KARB 260053Z AUTO 19005KT 10SM FEW032 OVC075 21/20 A2983 RMK AO2 LTG DSNT NE-S RAE13 SLP096 P0004 T02110200
KARB 260029Z AUTO 17005KT 10SM SCT006 OVC070 21/21 A2984 RMK AO2 LTG DSNT E-SW RAE13 P0004 T02110206
KARB 260022Z AUTO 17006KT 10SM BKN006 BKN024 OVC065 21/21 A2984 RMK AO2 LTG DSNT E-SW RAE13 P0004 T02110206
KARB 260014Z AUTO 20005KT 10SM SCT006 BKN022 OVC060 21/21 A2984 RMK AO2 LTG DSNT ALQDS RAE13 P0004 T02110206
KARB 260010Z AUTO 17006KT 8SM VCTS -RA FEW006 BKN042 OVC060 21/21 A2984 RMK AO2 LTG DSNT ALQDS P0004 T02110206
KARB 252353Z 19003KT 2 1/2SM VCTS -RA BR FEW008 BKN031 OVC050 21/21 A2985 RMK AO2 LTG DSNT S RAB15 SLP105 P0011 60011 T02110206 10244 20211 56003
KARB 252343Z 18004KT 2 1/2SM RA BR FEW029 BKN045 OVC055 21/20 A2985 RMK AO2 LTG DSNT S RAB15 P0007 T02110200
KARB 252253Z 17006KT 10SM BKN048 BKN060 OVC085 23/20 A2985 RMK AO2 SLP104 T02280200
KARB 252153Z 17006KT 10SM FEW019 OVC110 23/21 A2985 RMK AO2 SLP103 T02330211
KARB 252119Z 19009G14KT 10SM SCT015 24/21 A2985 RMK AO2 T02390211
KARB 252053Z 18007KT 10SM SCT011 SCT014 BKN024 24/22 A2986 RMK AO2 SLP107 T02390217 58024
KARB 252041Z 17009KT 10SM FEW009 BKN012 BKN022 23/22 A2987 RMK AO2 T02330217
KARB 252038Z 17008KT 10SM SCT014 BKN022 BKN029 23/22 A2988 RMK AO2 T02330217
KARB 252029Z 17009KT 10SM BKN014 BKN031 23/22 A2988 RMK AO2 T02330217
KARB 252017Z 17007KT 10SM FEW009 SCT016 BKN023 23/22 A2988 RMK AO2 T02330217
KARB 251953Z 16009KT 10SM SCT014 OVC022 23/22 A2990 RMK AO2 SLP120 T02280217
KARB 251940Z 19007KT 10SM SCT014 BKN022 OVC034 23/22 A2990 RMK AO2 T02330217
KARB 251928Z 15005KT 10SM BKN014 BKN034 23/22 A2989 RMK AO2 T02330217
KARB 251921Z 17007KT 10SM SCT014 BKN034 23/21 A2990 RMK AO2 T02330211
KARB 251853Z 16006KT 10SM BKN014 23/22 A2992 RMK AO2 SLP127 T02280217
KARB 251831Z 17007KT 10SM FEW015 SCT021 BKN046 23/22 A2992 RMK AO2 T02280217
KARB 251820Z 18007KT 10SM SCT013 BKN021 OVC043 23/22 A2993 RMK AO2 T02280217
KARB 251808Z 17006KT 10SM SCT009 BKN014 OVC022 23/21 A2993 RMK AO2 T02280211
KARB 251805Z 17008KT 10SM SCT010 BKN015 OVC022 23/22 A2993 RMK AO2 T02280217
KARB 251753Z 18007KT 10SM BKN009 OVC013 23/22 A2993 RMK AO2 RAE01 CIG 006V011 SLP133 P0000 60069 T02280217 10228 20200 58009
KARB 251745Z 18006KT 10SM SCT007 OVC013 23/21 A2994 RMK AO2 RAE01 P0000 T02280211
KARB 251735Z 18007KT 10SM BKN007 BKN013 OVC050 23/22 A2994 RMK AO2 RAE01 CIG 004V009 P0000 T02280217
KARB 251727Z 15007KT 10SM SCT007 BKN015 OVC050 23/22 A2994 RMK AO2 RAE01 P0000 T02280217
KARB 251710Z 16004KT 9SM SCT007 BKN013 OVC041 22/21 A2995 RMK AO2 RAE01 P0000 T02170211
KARB 251653Z 16003KT 6SM -RA BR BKN009 OVC015 21/21 A2996 RMK AO2 RAB34 CIG 004V011 SLP140 P0001 T02110206
KARB 251610Z VRB03KT 10SM BKN013 OVC019 22/20 A2995 RMK AO2 T02170200
KARB 251553Z 26004KT 10SM BKN015 OVC022 21/20 A2995 RMK AO2 RAE47 SLP137 P0004 T02110200
KARB 251517Z 23005KT 5SM -RA BR FEW005 FEW010 OVC019 21/20 A2996 RMK AO2 P0004 T02060200
KARB 251508Z 22004KT 3SM -RA BR SCT003 BKN012 OVC019 21/20 A2996 RMK AO2 P0003 T02060200
KARB 251505Z 24005KT 2SM -RA BR SCT003 BKN007 OVC017 21/20 A2996 RMK AO2 VIS 1V4 P0003 T02060200
KARB 251453Z 25006KT 1SM +RA BR BKN003 OVC008 21/20 A2996 RMK AO2 RAE05B18 CIG 002V006 SLP142 P0013 60064 T02060200 52001
KARB 251444Z 27004KT 1SM -RA BR OVC003 21/20 A2997 RMK AO2 RAE05B18 P0008 T02060200
KARB 251438Z 00000KT 1 1/2SM -RA BR OVC004 21/20 A2996 RMK AO2 RAE05B18 P0005 T02060200
KARB 251431Z 00000KT 1 1/4SM -RA BR OVC004 21/21 A2996 RMK AO2 RAE05B18 P0004 T02060206
KARB 251423Z VRB03KT 1 1/2SM RA BR BKN004 OVC010 21/21 A2996 RMK AO2 RAE05B18 CIG 003V008 P0002 T02060206
KARB 251415Z 21003KT 10SM BKN004 BKN008 OVC017 21/20 A2996 RMK AO2 RAE05 P0000 T02060200
KARB 251400Z 16003KT 4SM -RA BR FEW008 BKN013 OVC017 21/21 A2996 RMK AO2 P0000 T02060206 $
KARB 251357Z 16005KT 2 1/2SM -RA BR FEW008 BKN017 OVC024 21/21 A2996 RMK AO2 VIS 1V5 P0000 T02060206 $
KARB 251353Z 15004KT 1 1/4SM -RA BR FEW008 BKN017 OVC024 21/21 A2996 RMK AO2 SLP140 P0028 T02060206 $
KARB 251346Z 16004KT 1 1/4SM -RA BR FEW005 SCT010 OVC016 21/21 A2996 RMK AO2 LTG DSNT NE P0025 T02060206 $
KARB 251339Z 00000KT 1 3/4SM RA BR FEW009 BKN014 OVC018 21/20 A2996 RMK AO2 LTG DSNT NE AND E P0023 T02060200 $
KARB 251317Z 00000KT 3SM -RA BR FEW004 BKN011 OVC033 20/20 A2995 RMK AO2 LTG DSNT E P0019 T02000200 $
KARB 251314Z 00000KT 1 1/2SM -RA BR FEW004 BKN011 OVC018 20/20 A2995 RMK AO2 LTG DSNT E P0019 T02000200 $
KARB 251307Z 00000KT 1/2SM +RA FG FEW006 OVC011 20/20 A2995 RMK AO2 P0018 T02000200 $
KARB 251304Z 14003KT 3/4SM +RA BR FEW004 OVC009 20/20 A2995 RMK AO2 P0014 T02000200 $
KARB 251253Z 28005KT 1/2SM +RA FG FEW004 BKN010 OVC014 20/19 A2997 RMK AO2 RAE02B09 SLP144 P0023 T02000194 $
KARB 251246Z 00000KT 3/4SM +RA BR SCT006 BKN010 OVC029 20/20 A2996 RMK AO2 RAE02B09 P0013 T02000200 $
KARB 251243Z 00000KT 3/4SM +RA BR BKN004 OVC010 20/20 A2996 RMK AO2 RAE02B09 P0010 T02000200 $
KARB 251238Z 00000KT 1 1/4SM +RA BR SCT004 BKN009 OVC016 20/20 A2996 RMK AO2 RAE02B09 P0006 T02000200 $
KARB 251236Z 00000KT 2SM RA BR SCT004 BKN009 OVC016 20/20 A2996 RMK AO2 RAE02B09 P0004 T02000200 $
KARB 251221Z 18004KT 3SM -RA BR SCT004 BKN013 OVC023 20/20 A2996 RMK AO2 RAE02B09 P0001 T02000200 $
KARB 251211Z 15005KT 2 1/2SM -RA BR SCT004 BKN018 OVC023 20/20 A2996 RMK AO2 RAE02B09 P0001 T02000200 $
KARB 251207Z 14005KT 3SM BR SCT004 OVC023 20/20 A2996 RMK AO2 RAE02 P0001 T02000200 $
KARB 251158Z 14005KT 2SM -RA BR BKN004 OVC010 20/20 A2996 RMK AO2 P0000 T02000200 $
KARB 251153Z 15005KT 1 3/4SM -RA BR OVC005 20/20 A2996 RMK AO2 RAB50 SLP141 P0000 60003 70027 T02000200 10200 20189 50001 $
KARB 251146Z 17004KT 2 1/2SM BR OVC005 20/20 A2996 RMK AO2 T02000200 $
KARB 251053Z AUTO 18006KT 7SM OVC004 20/19 A2997 RMK AO2 SLP145 T02000194 $
KARB 251034Z AUTO 17006KT 7SM BKN004 OVC009 20/19 A2996 RMK AO2 T02000194 $
KARB 250953Z AUTO 19006KT 5SM BR OVC003 19/19 A2996 RMK AO2 RAE03 SLP141 P0000 T01940194 $
KARB 250902Z AUTO 16005KT 6SM -RA BR OVC003 19/19 A2996 RMK AO2 P0000 T01940189 $
KARB 250853Z AUTO 17006KT 2 1/2SM -RA BR OVC003 19/19 A2995 RMK AO2 RAB48 SLP140 P0001 60003 T01940189 56010 $
KARB 250800Z AUTO 13004KT 3SM BR OVC003 19/19 A2996 RMK AO2 T01940189 $
KARB 250753Z AUTO 14003KT 3SM BR OVC004 19/19 A2996 RMK AO2 RAB40E50 SLP143 P0001 T01940189 $
KARB 250743Z AUTO 15004KT 2 1/2SM -RA BR OVC004 19/19 A2997 RMK AO2 RAB40 P0000 T01940189 $
KARB 250653Z AUTO 14006KT 4SM BR OVC004 19/19 A2998 RMK AO2 SLP148 P0001 T01940189 $
KARB 250618Z AUTO 15005KT 4SM BR OVC004 19/19 A2998 RMK AO2 P0001 T01940189 $
KARB 250553Z AUTO 15006KT 3SM BR OVC005 19/19 A2999 RMK AO2 RAE06B30E39 CIG 003V008 SLP151 P0001 60007 T01890189 10194 20183 58015 $
KARB 250453Z AUTO 14007KT 3SM -RA BR OVC005 19/19 A3001 RMK AO2 RAB51 CIG 003V009 SLP157 P0000 T01890189 401940100 $
KARB 250353Z AUTO 12008KT 9SM BKN005 OVC010 19/18 A3002 RMK AO2 RAB19E29 SLP162 P0001 T01890183 $
KARB 250253Z AUTO 12007KT 10SM BKN005 OVC009 19/18 A3003 RMK AO2 SLP167 60005 T01890183 58003 $
KARB 250229Z AUTO 10007KT 8SM OVC004 19/18 A3003 RMK AO2 CIG 003V008 T01890183 $
KARB 250211Z AUTO 12006KT 6SM BR OVC003 19/18 A3003 RMK AO2 T01890183 $
KARB 250153Z AUTO 11008KT 6SM BR OVC004 19/18 A3004 RMK AO2 RAB06E16 SLP169 P0000 T01890183 $
KARB 250109Z AUTO 11009KT 8SM -RA OVC004 18/18 A3004 RMK AO2 RAB06 P0000 T01830183 $
KARB 250053Z AUTO 11007KT 9SM OVC005 18/18 A3004 RMK AO2 RAE53 SLP171 P0005 T01830183 $
KARB 250048Z AUTO 11007KT 10SM -RA BKN005 OVC075 18/18 A3004 RMK AO2 P0005 $
KARB 250000Z AUTO 12006KT 6SM -RA BR OVC004 18/18 A3005 RMK AO2 P0001 T01830183 $
KARB 242353Z AUTO 12007KT 6SM -RA BR OVC005 18/18 A3005 RMK AO2 SLP175 P0002 60017 T01830183 10189 20178 56010 $
KARB 242253Z 10007KT 5SM -RA BR OVC005 18/18 A3006 RMK AO2 CIG 004V009 SLP178 P0001 T01830178 $
KARB 242153Z 10005KT 6SM -RA BR OVC005 18/18 A3007 RMK AO2 RAB35 CIG 004V009 SLP182 P0000 T01830178
KARB 242053Z 08008KT 10SM OVC005 18/18 A3008 RMK AO2 RAE1958B28E46 SLP186 P0000 60014 T01780178 56010
KARB 241953Z 10008KT 5SM -RA BR BKN005 OVC010 18/17 A3009 RMK AO2 SLP190 P0010 T01780172
KARB 241950Z 10006KT 4SM -RA BR BKN005 OVC009 18/17 A3009 RMK AO2 P0010
KARB 241930Z 09009KT 2SM -RA BR OVC007 18/17 A3009 RMK AO2 P0007 T01780172
KARB 241922Z 09006KT 1 1/4SM -RA BR BKN005 OVC010 18/17 A3010 RMK AO2 P0006 T01780172
KARB 241917Z 09006KT 1 3/4SM -RA BR SCT005 OVC010 18/18 A3010 RMK AO2 CIG 008V012 P0005 T01780178
KARB 241914Z 08005KT 2SM -RA BR SCT005 OVC010 18/17 A3010 RMK AO2 CIG 008V013 P0005 T01780172
KARB 241906Z 10006KT 1 1/2SM RA BR OVC008 18/17 A3011 RMK AO2 CIG 005V013 P0005 T01780172
KARB 241857Z 08008KT 1 1/4SM +RA BR OVC010 18/17 A3011 RMK AO2 CIG 006V013 P0002 T01780172
KARB 241853Z 09008KT 2 1/2SM RA BR OVC010 18/17 A3011 RMK AO2 RAB15 CIG 007V013 SLP197 P0004 T01780172
KARB 241840Z 10005KT 2SM -RA BR OVC010 18/17 A3012 RMK AO2 RAB15 CIG 007V013 P0001 T01780172
KARB 241753Z 10008KT 10SM OVC012 18/16 A3013 RMK AO2 SLP204 T01830161 10189 20122 58012